Terminal Aerodrome Forecast
Issued by NWS

Current Version | Previous Version | Graphics & Text | Print | Product List | Glossary On
Versions: 1 2 3 4 5 6 7 8 9 10 11 12 13 14 15 16 17 18 19 20 21 22 23 24 25 26
883
FTUS41 KPBZ 221120
TAFHLG
TAF
KHLG 221120Z 2212/2312 32005KT P6SM OVC003
      TEMPO 2212/2214 1/4SM FG
     FM221400 32005KT P6SM SCT010 OVC100
     FM221700 32007KT P6SM -SHRA BKN040
     FM222100 35006KT P6SM BKN050
     FM230600 34004KT P6SM SCT100=

USA.gov is the U.S. government's official web portal to all federal, state and local government web resources and services.